createdAt,value
2023-02-15T00:01:53.128Z,11.40
2023-02-15T00:04:22.269Z,11.18
2023-02-15T00:06:49.740Z,11.18
2023-02-15T00:09:16.902Z,11.20
2023-02-15T00:11:45.008Z,10.02
2023-02-15T00:14:23.384Z,13.15
2023-02-15T00:16:52.879Z,11.90
2023-02-15T00:19:21.418Z,11.77
2023-02-15T00:21:49.686Z,13.05
2023-02-15T00:24:18.147Z,10.48
2023-02-15T00:26:45.707Z,11.82
2023-02-15T00:29:14.161Z,9.43
2023-02-15T00:31:41.282Z,10.27
2023-02-15T00:34:19.021Z,8.95
2023-02-15T00:36:46.211Z,11.88
2023-02-15T00:39:13.084Z,10.23
2023-02-15T00:41:43.486Z,9.05
2023-02-15T00:44:10.884Z,9.32
2023-02-15T00:46:37.741Z,8.13
2023-02-15T00:49:05.024Z,9.90
2023-02-15T00:51:32.617Z,8.50
2023-02-15T00:53:59.488Z,7.13
2023-02-15T00:56:26.323Z,9.50
2023-02-15T00:58:53.124Z,7.90
2023-02-15T01:01:21.715Z,6.82
2023-02-15T01:03:48.937Z,7.38
2023-02-15T01:06:17.273Z,6.80
2023-02-15T01:08:44.989Z,7.38
2023-02-15T01:11:23.255Z,7.03
2023-02-15T01:13:58.288Z,5.85
2023-02-15T01:16:30.447Z,8.20
2023-02-15T01:18:57.421Z,7.38
2023-02-15T01:21:26.043Z,9.45
2023-02-15T01:23:53.116Z,8.63
2023-02-15T01:26:22.425Z,7.95
2023-02-15T01:28:49.122Z,9.02
2023-02-15T01:31:18.579Z,7.78
2023-02-15T01:33:46.646Z,9.00
2023-02-15T01:36:13.548Z,8.93
2023-02-15T01:38:43.022Z,7.88
2023-02-15T01:41:23.959Z,8.13
2023-02-15T01:43:56.663Z,7.47
2023-02-15T01:46:27.541Z,9.20
2023-02-15T01:49:04.093Z,7.07
2023-02-15T01:51:34.119Z,6.82
2023-02-15T01:54:35.035Z,5.95
2023-02-15T01:57:08.648Z,7.93
2023-02-15T01:59:39.161Z,6.53
2023-02-15T02:02:12.862Z,5.65
2023-02-15T02:04:46.357Z,7.90
2023-02-15T02:07:16.928Z,5.82
2023-02-15T02:09:44.312Z,5.97
2023-02-15T02:12:11.392Z,6.57
2023-02-15T02:14:40.643Z,5.85
2023-02-15T02:17:23.457Z,5.57
2023-02-15T02:19:59.264Z,6.60
2023-02-15T02:22:37.875Z,4.85
2023-02-15T02:25:04.524Z,7.32
2023-02-15T02:27:40.334Z,7.18
2023-02-15T02:30:26.004Z,7.93
2023-02-15T02:33:14.604Z,5.85
2023-02-15T02:35:56.917Z,5.35
2023-02-15T02:38:53.760Z,5.65
2023-02-15T02:41:54.479Z,5.18
2023-02-15T02:44:51.096Z,3.70
2023-02-15T02:47:52.318Z,5.60
2023-02-15T02:50:23.975Z,4.65
2023-02-15T02:52:52.771Z,4.25
2023-02-15T02:55:35.438Z,4.10
2023-02-15T02:58:05.204Z,4.47
2023-02-15T03:00:43.061Z,4.97
2023-02-15T03:03:59.136Z,3.90
2023-02-15T03:06:29.704Z,4.80
2023-02-15T03:09:03.016Z,4.47
2023-02-15T03:11:30.988Z,3.72
2023-02-15T03:13:58.836Z,5.30
2023-02-15T03:16:26.644Z,7.30
2023-02-15T03:19:07.802Z,7.75
2023-02-15T03:21:58.604Z,5.28
2023-02-15T03:24:33.304Z,7.03
2023-02-15T03:27:00.945Z,6.97
2023-02-15T03:29:29.782Z,8.35
2023-02-15T03:32:01.797Z,7.97
2023-02-15T03:34:28.738Z,7.72
2023-02-15T03:37:02.119Z,6.32
2023-02-15T03:39:29.511Z,8.00
2023-02-15T03:42:02.485Z,7.70
2023-02-15T03:44:32.054Z,7.05
2023-02-15T03:47:17.036Z,7.85
2023-02-15T03:49:51.885Z,8.02
2023-02-15T03:52:20.442Z,8.82
2023-02-15T03:54:47.554Z,9.93
2023-02-15T03:57:37.830Z,9.63
2023-02-15T04:00:30.891Z,9.70
2023-02-15T04:03:24.916Z,9.10
2023-02-15T04:05:51.727Z,9.43
2023-02-15T04:08:18.681Z,10.32
2023-02-15T04:10:54.442Z,10.75
2023-02-15T04:13:22.740Z,9.30
2023-02-15T04:16:05.220Z,9.45
2023-02-15T04:18:51.861Z,11.95
2023-02-15T04:21:37.936Z,11.10
2023-02-15T04:24:23.934Z,10.25
2023-02-15T04:26:53.799Z,8.93
2023-02-15T04:29:24.909Z,9.40
2023-02-15T04:31:53.247Z,9.15
2023-02-15T04:34:20.363Z,8.88
2023-02-15T04:36:47.117Z,8.50
2023-02-15T04:39:15.749Z,7.72
2023-02-15T04:41:42.476Z,8.73
2023-02-15T04:44:09.541Z,10.90
2023-02-15T04:46:36.314Z,9.55
2023-02-15T04:49:03.891Z,8.25
2023-02-15T04:51:30.609Z,10.02
2023-02-15T04:53:57.828Z,8.82
2023-02-15T04:56:24.577Z,9.13
2023-02-15T04:58:51.353Z,8.13
2023-02-15T05:01:18.420Z,9.20
2023-02-15T05:03:45.189Z,8.07
2023-02-15T05:06:11.938Z,7.80
2023-02-15T05:08:38.647Z,9.60
2023-02-15T05:11:05.321Z,7.95
2023-02-15T05:13:32.000Z,9.90
2023-02-15T05:15:58.697Z,9.35
2023-02-15T05:18:25.456Z,9.07
2023-02-15T05:20:52.230Z,8.30
2023-02-15T05:23:18.962Z,9.82
2023-02-15T05:26:10.785Z,10.55
2023-02-15T05:28:39.184Z,8.27
2023-02-15T05:31:08.831Z,9.38
2023-02-15T05:33:36.526Z,10.98
2023-02-15T05:36:04.507Z,9.00
2023-02-15T05:38:31.677Z,10.93
2023-02-15T05:40:58.793Z,11.05
2023-02-15T05:43:26.393Z,10.50
2023-02-15T05:45:55.470Z,10.35
2023-02-15T05:48:25.659Z,10.35
2023-02-15T05:51:03.023Z,10.73
2023-02-15T05:53:31.577Z,9.95
2023-02-15T05:56:01.522Z,9.00
2023-02-15T05:58:30.655Z,11.27
2023-02-15T06:00:57.971Z,8.48
2023-02-15T06:03:26.823Z,11.07
2023-02-15T06:05:53.908Z,9.85
2023-02-15T06:08:20.922Z,11.05
2023-02-15T06:10:47.932Z,12.10
2023-02-15T06:13:14.644Z,12.10
2023-02-15T06:15:41.331Z,10.70
2023-02-15T06:18:08.027Z,10.23
2023-02-15T06:20:34.777Z,10.60
2023-02-15T06:23:01.465Z,10.20
2023-02-15T06:25:28.172Z,11.93
2023-02-15T06:27:54.846Z,13.32
2023-02-15T06:30:21.848Z,12.35
2023-02-15T06:32:48.589Z,10.70
2023-02-15T06:35:15.348Z,9.88
2023-02-15T06:37:42.103Z,12.98
2023-02-15T06:40:09.517Z,9.90
2023-02-15T06:42:36.203Z,11.73
2023-02-15T06:45:02.939Z,10.93
2023-02-15T06:47:29.606Z,11.45
2023-02-15T06:49:56.331Z,10.15
2023-02-15T06:52:23.056Z,12.20
2023-02-15T06:54:49.750Z,9.38
2023-02-15T06:57:16.436Z,8.30
2023-02-15T06:59:43.159Z,9.52
2023-02-15T07:02:12.876Z,10.43
2023-02-15T07:04:39.620Z,9.68
2023-02-15T07:07:10.548Z,8.77
2023-02-15T07:09:37.609Z,8.73
2023-02-15T07:12:23.211Z,7.63
2023-02-15T07:14:49.975Z,9.90
2023-02-15T07:17:34.981Z,8.18
2023-02-15T07:20:09.035Z,6.63
2023-02-15T07:22:37.417Z,8.52
2023-02-15T07:25:06.593Z,9.63
2023-02-15T07:27:33.502Z,7.93
2023-02-15T07:30:01.074Z,8.48
2023-02-15T07:32:32.688Z,10.30
2023-02-15T07:35:00.017Z,9.02
2023-02-15T07:37:27.968Z,8.52
2023-02-15T07:39:54.701Z,8.95
2023-02-15T07:42:22.396Z,8.60
2023-02-15T07:44:49.150Z,8.18
2023-02-15T07:47:15.860Z,7.45
2023-02-15T07:49:42.538Z,8.63
2023-02-15T07:52:09.318Z,9.05
2023-02-15T07:54:36.041Z,9.35
2023-02-15T07:57:03.236Z,7.53
2023-02-15T07:59:30.083Z,9.00
2023-02-15T08:01:57.638Z,8.10
2023-02-15T08:04:25.181Z,7.68
2023-02-15T08:06:54.849Z,8.23
2023-02-15T08:09:21.653Z,8.57
2023-02-15T08:11:49.024Z,7.30
2023-02-15T08:14:18.257Z,8.88
2023-02-15T08:16:50.358Z,8.55
2023-02-15T08:19:23.635Z,7.80
2023-02-15T08:24:21.732Z,7.78
2023-02-15T08:26:49.847Z,6.97
2023-02-15T08:29:18.743Z,7.53
2023-02-15T08:31:46.499Z,6.72
2023-02-15T08:34:17.264Z,7.75
2023-02-15T08:36:46.116Z,6.90
2023-02-15T08:39:13.917Z,7.30
2023-02-15T08:41:42.992Z,7.97
2023-02-15T08:44:11.340Z,7.57
2023-02-15T08:46:43.437Z,8.85
2023-02-15T08:49:12.826Z,7.18
2023-02-15T08:51:40.722Z,7.32
2023-02-15T08:54:10.603Z,7.30
2023-02-15T08:56:39.778Z,6.95
2023-02-15T08:59:08.431Z,8.05
2023-02-15T09:01:36.447Z,6.38
2023-02-15T09:04:06.551Z,7.68
2023-02-15T09:06:33.411Z,7.10
2023-02-15T09:09:00.155Z,7.70
2023-02-15T09:11:32.477Z,9.25
2023-02-15T09:14:02.010Z,8.30
2023-02-15T09:16:31.866Z,8.77
2023-02-15T09:18:58.797Z,10.02
2023-02-15T09:21:27.275Z,8.85
2023-02-15T09:24:02.157Z,10.18
2023-02-15T09:26:31.886Z,9.15
2023-02-15T09:29:01.844Z,10.27
2023-02-15T09:31:31.600Z,10.00
2023-02-15T09:34:01.908Z,9.35
2023-02-15T09:36:39.794Z,10.48
2023-02-15T09:39:19.140Z,8.68
2023-02-15T09:42:00.976Z,8.98
2023-02-15T09:44:52.190Z,7.97
2023-02-15T09:47:31.711Z,9.02
2023-02-15T09:50:13.965Z,9.45
2023-02-15T09:52:49.841Z,9.43
2023-02-15T09:55:23.250Z,9.18
2023-02-15T09:58:35.005Z,9.70
2023-02-15T10:01:37.413Z,10.95
2023-02-15T10:04:32.525Z,10.05
2023-02-15T10:07:12.944Z,8.63
2023-02-15T10:10:01.533Z,10.20
2023-02-15T10:13:00.109Z,10.98
2023-02-15T10:15:29.572Z,10.43
2023-02-15T10:18:14.538Z,10.32
2023-02-15T10:20:44.200Z,10.25
2023-02-15T10:23:20.151Z,11.27
2023-02-15T10:26:26.610Z,9.35
2023-02-15T10:28:56.250Z,8.50
2023-02-15T10:31:37.353Z,10.55
2023-02-15T10:34:18.352Z,7.65
2023-02-15T10:37:09.410Z,9.73
2023-02-15T10:40:06.750Z,10.15
2023-02-15T10:43:01.299Z,8.88
2023-02-15T10:45:57.943Z,10.95
2023-02-15T10:48:45.802Z,8.57
2023-02-15T10:51:22.538Z,8.80
2023-02-15T10:54:15.368Z,11.15
2023-02-15T10:57:00.326Z,8.40
2023-02-15T10:59:42.081Z,9.98
2023-02-15T11:02:18.900Z,8.45
2023-02-15T11:05:00.885Z,9.32
2023-02-15T11:07:36.332Z,9.10
2023-02-15T11:10:17.496Z,8.93
2023-02-15T11:12:48.302Z,11.27
2023-02-15T11:15:37.580Z,11.25
2023-02-15T11:18:35.479Z,8.95
2023-02-15T11:21:11.148Z,11.32
2023-02-15T11:23:48.146Z,10.40
2023-02-15T11:26:35.548Z,10.23
2023-02-15T11:29:18.854Z,9.70
2023-02-15T11:31:50.508Z,9.45
2023-02-15T11:34:26.606Z,11.20
2023-02-15T11:36:59.168Z,11.63
2023-02-15T11:39:29.671Z,13.10
2023-02-15T11:42:06.161Z,11.73
2023-02-15T11:44:36.145Z,11.15
2023-02-15T11:47:03.757Z,12.13
2023-02-15T11:49:34.571Z,10.43
2023-02-15T11:52:05.092Z,9.35
2023-02-15T11:54:36.761Z,9.65
2023-02-15T11:57:34.889Z,10.05
2023-02-15T12:00:32.530Z,11.25
2023-02-15T12:02:59.618Z,11.63
2023-02-15T12:05:27.128Z,11.13
2023-02-15T12:08:02.405Z,11.25
2023-02-15T12:10:34.913Z,11.15
2023-02-15T12:13:21.593Z,9.88
2023-02-15T12:15:52.540Z,11.25
2023-02-15T12:18:42.754Z,11.20
2023-02-15T12:21:29.338Z,9.93
2023-02-15T12:24:01.715Z,10.80
2023-02-15T12:26:31.841Z,11.30
2023-02-15T12:29:21.754Z,10.02
2023-02-15T12:31:52.832Z,10.40
2023-02-15T12:34:20.084Z,9.60
2023-02-15T12:36:55.446Z,11.55
2023-02-15T12:39:27.186Z,10.07
2023-02-15T12:41:56.860Z,9.55
2023-02-15T12:44:32.670Z,7.07
2023-02-15T12:47:17.712Z,8.80
2023-02-15T12:49:47.875Z,8.45
2023-02-15T12:52:21.292Z,9.40
2023-02-15T12:57:22.937Z,8.45
2023-02-15T12:59:55.214Z,9.05
2023-02-15T13:02:42.072Z,9.60
2023-02-15T13:05:09.650Z,8.60
2023-02-15T13:07:38.074Z,8.57
2023-02-15T13:10:05.493Z,10.23
2023-02-15T13:12:33.224Z,9.65
2023-02-15T13:15:02.689Z,8.77
2023-02-15T13:17:35.571Z,8.68
2023-02-15T13:20:08.673Z,7.88
2023-02-15T13:25:18.824Z,8.55
2023-02-15T13:27:47.553Z,8.10
2023-02-15T13:30:32.277Z,7.80
2023-02-15T13:33:27.402Z,7.75
2023-02-15T13:36:02.064Z,7.10
2023-02-15T13:38:56.938Z,5.47
2023-02-15T13:41:52.611Z,4.13
2023-02-15T13:44:34.449Z,7.75
2023-02-15T13:47:18.879Z,4.93
2023-02-15T13:50:03.726Z,4.97
2023-02-15T13:52:33.527Z,4.72
2023-02-15T13:55:25.442Z,3.35
2023-02-15T13:58:14.002Z,4.30
2023-02-15T14:01:10.419Z,4.80
2023-02-15T14:04:20.749Z,3.92
2023-02-15T14:07:08.973Z,3.47
2023-02-15T14:10:06.736Z,4.20
2023-02-15T14:12:58.325Z,4.07
2023-02-15T14:15:30.736Z,3.55
2023-02-15T14:18:10.939Z,3.27
2023-02-15T14:20:47.710Z,3.47
2023-02-15T14:23:32.755Z,3.20
2023-02-15T14:26:10.987Z,3.53
2023-02-15T14:29:00.677Z,4.03
2023-02-15T14:31:34.684Z,4.32
2023-02-15T14:34:01.830Z,3.70
2023-02-15T14:36:31.332Z,3.13
2023-02-15T14:39:33.428Z,3.03
2023-02-15T14:42:20.503Z,3.25
2023-02-15T14:45:01.790Z,2.75
2023-02-15T14:47:36.864Z,2.67
2023-02-15T14:50:34.821Z,2.30
2023-02-15T14:53:36.935Z,2.10
2023-02-15T14:56:15.245Z,1.90
2023-02-15T14:58:50.932Z,2.25
2023-02-15T15:01:29.831Z,2.85
2023-02-15T15:04:04.290Z,2.45
2023-02-15T15:06:34.081Z,2.00
2023-02-15T15:09:28.075Z,1.95
2023-02-15T15:11:56.212Z,1.90
2023-02-15T15:14:35.330Z,1.65
2023-02-15T15:17:06.483Z,1.80
2023-02-15T15:19:52.737Z,1.35
2023-02-15T15:22:26.513Z,1.50
2023-02-15T15:24:55.676Z,1.40
2023-02-15T15:27:47.375Z,1.10
2023-02-15T15:30:14.040Z,1.40
2023-02-15T15:32:56.331Z,1.20
2023-02-15T15:36:06.570Z,1.33
2023-02-15T15:38:51.584Z,1.27
2023-02-15T15:41:42.762Z,1.27
2023-02-15T15:44:46.343Z,1.35
2023-02-15T15:47:23.922Z,1.30
2023-02-15T15:49:51.052Z,1.17
2023-02-15T15:52:22.741Z,1.35
2023-02-15T15:54:54.009Z,1.40
2023-02-15T15:57:34.896Z,1.23
2023-02-15T16:00:02.270Z,1.20
2023-02-15T16:02:29.209Z,1.30
2023-02-15T16:04:55.934Z,1.40
2023-02-15T16:07:27.285Z,1.40
2023-02-15T16:10:07.127Z,1.23
2023-02-15T16:12:36.371Z,1.10
2023-02-15T16:15:16.599Z,1.20
2023-02-15T16:17:50.220Z,1.40
2023-02-15T16:20:22.766Z,1.27
2023-02-15T16:22:56.265Z,1.40
2023-02-15T16:25:46.483Z,1.42
2023-02-15T16:28:14.089Z,1.30
2023-02-15T16:30:43.184Z,1.17
2023-02-15T16:33:17.901Z,1.25
2023-02-15T16:35:57.113Z,1.38
2023-02-15T16:38:35.889Z,1.25
2023-02-15T16:41:02.918Z,1.20
2023-02-15T16:43:32.926Z,1.10
2023-02-15T16:46:13.446Z,1.80
2023-02-15T16:48:47.591Z,1.30
2023-02-15T16:51:25.747Z,1.35
2023-02-15T16:53:55.407Z,1.25
2023-02-15T16:56:34.115Z,1.60
2023-02-15T16:59:02.210Z,2.67
2023-02-15T17:01:32.215Z,2.85
2023-02-15T17:04:13.429Z,2.50
2023-02-15T17:06:40.291Z,3.65
2023-02-15T17:09:19.499Z,2.88
2023-02-15T17:11:46.324Z,2.70
2023-02-15T17:14:20.672Z,2.25
2023-02-15T17:16:54.749Z,1.52
2023-02-15T17:19:47.465Z,2.20
2023-02-15T17:22:24.436Z,1.80
2023-02-15T17:24:59.392Z,2.80
2023-02-15T17:27:29.788Z,2.33
2023-02-15T17:30:00.561Z,2.63
2023-02-15T17:32:35.553Z,2.20
2023-02-15T17:35:45.547Z,2.35
2023-02-15T17:38:21.982Z,2.15
2023-02-15T17:40:48.803Z,3.28
2023-02-15T17:43:15.484Z,2.63
2023-02-15T17:45:52.241Z,2.30
2023-02-15T17:48:23.471Z,3.38
2023-02-15T17:50:50.397Z,2.00
2023-02-15T17:53:19.105Z,2.40
2023-02-15T17:55:46.522Z,2.28
2023-02-15T17:58:15.476Z,2.50
2023-02-15T18:01:16.066Z,3.90
2023-02-15T18:04:07.278Z,2.67
2023-02-15T18:06:54.746Z,2.10
2023-02-15T18:09:41.503Z,2.22
2023-02-15T18:12:32.463Z,1.85
2023-02-15T18:15:00.728Z,2.08
2023-02-15T18:17:33.489Z,2.30
2023-02-15T18:20:05.472Z,2.33
2023-02-15T18:22:33.275Z,1.98
2023-02-15T18:25:00.196Z,2.50
2023-02-15T18:27:26.958Z,2.45
2023-02-15T18:29:53.742Z,2.05
2023-02-15T18:32:29.503Z,2.80
2023-02-15T18:34:58.454Z,2.58
2023-02-15T18:37:29.695Z,2.42
2023-02-15T18:39:56.537Z,2.67
2023-02-15T18:42:29.200Z,2.28
2023-02-15T18:45:03.217Z,2.90
2023-02-15T18:47:30.011Z,2.63
2023-02-15T18:49:56.913Z,2.10
2023-02-15T18:52:26.602Z,2.15
2023-02-15T18:55:01.594Z,2.20
2023-02-15T18:57:29.184Z,3.45
2023-02-15T18:59:56.356Z,2.20
2023-02-15T19:02:23.245Z,2.00
2023-02-15T19:04:50.768Z,2.65
2023-02-15T19:07:28.215Z,2.30
2023-02-15T19:09:58.924Z,3.22
2023-02-15T19:12:26.684Z,2.55
2023-02-15T19:14:57.946Z,2.70
2023-02-15T19:17:26.726Z,2.38
2023-02-15T19:19:54.649Z,3.60
2023-02-15T19:22:32.016Z,2.30
2023-02-15T19:25:02.694Z,2.35
2023-02-15T19:27:35.107Z,3.53
2023-02-15T19:30:08.552Z,2.77
2023-02-15T19:32:35.657Z,3.63
2023-02-15T19:35:02.926Z,3.85
2023-02-15T19:37:36.696Z,2.95
2023-02-15T19:40:06.006Z,2.38
2023-02-15T19:42:34.806Z,4.57
2023-02-15T19:45:01.776Z,3.35
2023-02-15T19:47:29.883Z,3.50
2023-02-15T19:50:01.992Z,3.42
2023-02-15T19:52:29.394Z,3.72
2023-02-15T19:54:56.916Z,3.92
2023-02-15T19:57:23.890Z,3.42
2023-02-15T19:59:51.986Z,4.15
2023-02-15T20:02:20.493Z,3.25
2023-02-15T20:04:51.868Z,3.00
2023-02-15T20:07:28.643Z,3.50
2023-02-15T20:09:58.894Z,2.40
2023-02-15T20:12:29.736Z,2.92
2023-02-15T20:14:59.566Z,2.50
2023-02-15T20:17:27.248Z,2.85
2023-02-15T20:19:55.575Z,2.20
2023-02-15T20:22:26.781Z,2.83
2023-02-15T20:24:56.801Z,2.92
2023-02-15T20:27:25.389Z,3.35
2023-02-15T20:29:57.278Z,2.30
2023-02-15T20:32:25.652Z,3.25
2023-02-15T20:34:53.348Z,2.47
2023-02-15T20:37:29.082Z,3.15
2023-02-15T20:39:57.955Z,2.88
2023-02-15T20:42:26.922Z,3.63
2023-02-15T20:44:57.216Z,4.07
2023-02-15T20:47:29.039Z,3.20
2023-02-15T20:50:02.992Z,2.85
2023-02-15T20:52:31.282Z,3.28
2023-02-15T20:54:59.431Z,3.88
2023-02-15T20:57:27.875Z,3.63
2023-02-15T21:00:02.742Z,3.30
2023-02-15T21:02:30.705Z,3.20
2023-02-15T21:05:03.329Z,3.92
2023-02-15T21:07:31.427Z,3.53
2023-02-15T21:10:01.942Z,3.08
2023-02-15T21:12:31.001Z,3.53
2023-02-15T21:15:03.567Z,3.20
2023-02-15T21:17:32.686Z,3.63
2023-02-15T21:19:59.847Z,3.35
2023-02-15T21:22:28.817Z,2.58
2023-02-15T21:24:56.937Z,2.95
2023-02-15T21:27:25.670Z,3.20
2023-02-15T21:29:56.315Z,2.30
2023-02-15T21:32:24.227Z,2.58
2023-02-15T21:34:53.168Z,2.55
2023-02-15T21:37:30.908Z,2.13
2023-02-15T21:39:59.338Z,2.20
2023-02-15T21:42:48.012Z,2.55
2023-02-15T21:45:35.379Z,2.50
2023-02-15T21:48:02.566Z,2.20
2023-02-15T21:50:47.785Z,3.90
2023-02-15T21:53:42.752Z,2.63
2023-02-15T21:56:19.273Z,2.95
2023-02-15T21:58:46.531Z,2.63
2023-02-15T22:01:33.828Z,2.42
2023-02-15T22:04:01.019Z,2.40
2023-02-15T22:06:27.840Z,2.85
2023-02-15T22:08:54.569Z,2.50
2023-02-15T22:11:24.951Z,2.10
2023-02-15T22:13:51.870Z,2.30
2023-02-15T22:16:27.795Z,2.90
2023-02-15T22:18:54.523Z,2.70
2023-02-15T22:21:21.647Z,2.08
2023-02-15T22:23:48.471Z,2.50
2023-02-15T22:26:23.190Z,2.03
2023-02-15T22:28:50.536Z,3.00
2023-02-15T22:31:22.702Z,3.10
2023-02-15T22:33:51.117Z,2.73
2023-02-15T22:36:22.401Z,2.55
2023-02-15T22:38:49.110Z,2.70
2023-02-15T22:41:16.414Z,3.33
2023-02-15T22:43:45.323Z,2.60
2023-02-15T22:46:17.305Z,2.40
2023-02-15T22:48:46.098Z,3.17
2023-02-15T22:51:17.852Z,2.90
2023-02-15T22:53:44.594Z,2.40
2023-02-15T22:56:20.963Z,2.50
2023-02-15T22:58:50.431Z,2.70
2023-02-15T23:01:24.942Z,2.40
2023-02-15T23:03:51.721Z,2.55
2023-02-15T23:06:18.524Z,2.22
2023-02-15T23:08:45.206Z,2.08
2023-02-15T23:11:12.188Z,1.85
2023-02-15T23:13:38.943Z,2.10
2023-02-15T23:16:07.957Z,2.33
2023-02-15T23:18:38.875Z,2.35
2023-02-15T23:21:23.967Z,2.17
2023-02-15T23:23:56.244Z,2.50
2023-02-15T23:26:24.287Z,2.63
2023-02-15T23:28:52.437Z,2.63
2023-02-15T23:31:25.323Z,2.90
2023-02-15T23:33:53.353Z,2.50
2023-02-15T23:36:38.136Z,2.30
2023-02-15T23:39:43.713Z,2.42
2023-02-15T23:42:17.548Z,2.40
2023-02-15T23:44:45.504Z,2.42
2023-02-15T23:47:47.441Z,2.28
2023-02-15T23:50:21.344Z,2.60
2023-02-15T23:52:49.945Z,3.03
2023-02-15T23:55:17.749Z,1.85
2023-02-15T23:57:45.461Z,1.60
